Time;durP1;ratioP1;P1;durP2;ratioP2;P2;SDS_P1;SDS_P2;PMS_P1;PMS_P2;Temp;Humidity;BMP_temperature;BMP_pressure;BME280_temperature;BME280_humidity;BME280_pressure;Samples;Min_cycle;Max_cycle;Signal;HPM_P1;HPM_P2
2023/07/12 00:02:55;;;;;;;16.47;8.60;;;;;;;;;;6268654;28;20398;-83
2023/07/12 00:05:56;;;;;;;18.17;9.40;;;;;;;;;;6270500;28;20070;-83
2023/07/12 00:08:56;;;;;;;14.23;8.47;;;;;;;;;;6269328;28;20036;-83
2023/07/12 00:11:56;;;;;;;15.37;8.47;;;;;;;;;;6267579;28;20037;-83
2023/07/12 00:14:56;;;;;;;14.77;8.43;;;;;;;;;;6270243;28;20024;-83
2023/07/12 00:17:57;;;;;;;15.93;9.67;;;;;;;;;;6270080;28;20029;-82
2023/07/12 00:20:57;;;;;;;17.37;9.20;;;;;;;;;;6272054;28;20024;-83
2023/07/12 00:23:58;;;;;;;20.50;9.47;;;;;;;;;;6271998;28;20017;-83
2023/07/12 00:27:00;;;;;;;16.67;9.23;;;;;;;;;;6270092;28;20044;-83
2023/07/12 00:30:00;;;;;;;18.83;11.23;;;;;;;;;;6270444;28;20392;-83
2023/07/12 00:33:04;;;;;;;19.67;9.17;;;;;;;;;;6268380;28;20505;-83
2023/07/12 00:36:05;;;;;;;16.67;10.18;;;;;;;;;;6270277;28;20483;-83
2023/07/12 00:39:05;;;;;;;18.67;9.70;;;;;;;;;;6270311;28;20047;-83
2023/07/12 00:42:09;;;;;;;21.27;8.97;;;;;;;;;;6269236;28;20025;-83
2023/07/12 00:45:09;;;;;;;13.80;8.50;;;;;;;;;;6268404;28;20115;-82
2023/07/12 00:48:11;;;;;;;18.87;10.47;;;;;;;;;;6269347;28;20021;-83
2023/07/12 00:51:24;;;;;;;21.30;10.02;;;;;;;;;;6271073;28;20143;-83
2023/07/12 00:54:25;;;;;;;20.15;9.48;;;;;;;;;;6271593;28;20052;-83
2023/07/12 00:57:27;;;;;;;22.33;9.63;;;;;;;;;;6261407;28;20017;-83
2023/07/12 01:00:27;;;;;;;;;;;;;;;;;;6267506;28;20082;-82
2023/07/12 01:03:30;;;;;;;17.45;9.48;;;;;;;;;;6274607;28;20375;-83
2023/07/12 01:06:31;;;;;;;17.30;10.20;;;;;;;;;;6265936;28;20137;-83
2023/07/12 01:09:32;;;;;;;17.43;9.50;;;;;;;;;;6286823;28;20059;-83
2023/07/12 01:12:32;;;;;;;13.25;8.45;;;;;;;;;;6255759;28;20055;-83
2023/07/12 01:15:34;;;;;;;19.27;8.77;;;;;;;;;;6262081;28;20016;-83
2023/07/12 01:18:34;;;;;;;19.60;9.02;;;;;;;;;;6280381;28;20017;-83
2023/07/12 01:21:36;;;;;;;18.10;9.13;;;;;;;;;;6277210;28;20028;-83
2023/07/12 01:24:37;;;;;;;17.75;9.32;;;;;;;;;;6259115;28;20021;-83
2023/07/12 01:27:37;;;;;;;22.13;10.05;;;;;;;;;;6279050;28;20023;-83
2023/07/12 01:30:38;;;;;;;19.97;8.73;;;;;;;;;;6266969;28;20418;-83
2023/07/12 01:33:38;;;;;;;15.60;9.40;;;;;;;;;;6260504;28;20395;-83
2023/07/12 01:36:38;;;;;;;14.27;8.53;;;;;;;;;;6274766;28;20013;-83
2023/07/12 01:39:38;;;;;;;13.90;8.27;;;;;;;;;;6261964;28;20133;-83
2023/07/12 01:42:39;;;;;;;14.83;8.70;;;;;;;;;;6259829;28;20024;-82
2023/07/12 01:45:39;;;;;;;17.97;10.00;;;;;;;;;;6245438;28;20028;-83
2023/07/12 01:48:39;;;;;;;21.20;10.97;;;;;;;;;;6283442;28;20053;-83
2023/07/12 01:51:40;;;;;;;19.43;10.77;;;;;;;;;;6271227;28;20100;-83
2023/07/12 01:54:40;;;;;;;17.23;11.23;;;;;;;;;;6259972;28;20049;-83
2023/07/12 01:57:40;;;;;;;20.73;10.20;;;;;;;;;;6262629;28;20044;-83
2023/07/12 02:00:41;;;;;;;20.37;10.87;;;;;;;;;;6269235;28;20123;-83
2023/07/12 02:03:41;;;;;;;17.83;9.10;;;;;;;;;;6267605;28;20075;-83
2023/07/12 02:06:42;;;;;;;19.37;10.97;;;;;;;;;;6271998;28;20487;-83
2023/07/12 02:10:02;;;;;;;16.57;10.13;;;;;;;;;;6267668;28;20021;-83
2023/07/12 02:13:03;;;;;;;15.25;9.75;;;;;;;;;;6261353;28;20025;-83
2023/07/12 02:16:03;;;;;;;25.88;10.98;;;;;;;;;;6263381;28;20120;-83
2023/07/12 02:19:03;;;;;;;23.27;10.57;;;;;;;;;;6267768;28;20473;-83
2023/07/12 02:22:04;;;;;;;20.35;9.40;;;;;;;;;;6267924;28;20029;-83
2023/07/12 02:25:04;;;;;;;16.60;8.87;;;;;;;;;;6267535;28;20053;-83
2023/07/12 02:28:04;;;;;;;18.37;9.70;;;;;;;;;;6268500;28;20030;-84
2023/07/12 02:31:14;;;;;;;14.97;9.03;;;;;;;;;;6268090;28;20407;-83
2023/07/12 02:34:14;;;;;;;19.73;10.20;;;;;;;;;;6269282;28;20533;-83
2023/07/12 02:37:15;;;;;;;26.20;10.32;;;;;;;;;;6265265;28;20025;-84
2023/07/12 02:40:15;;;;;;;16.75;10.43;;;;;;;;;;6267229;28;20430;-83
2023/07/12 02:43:16;;;;;;;22.17;10.97;;;;;;;;;;6268639;28;20032;-83
2023/07/12 02:46:16;;;;;;;18.27;10.93;;;;;;;;;;6266574;28;20134;-83
2023/07/12 02:49:16;;;;;;;16.17;10.77;;;;;;;;;;6250270;28;20538;-83
2023/07/12 02:52:16;;;;;;;16.80;11.30;;;;;;;;;;6266756;28;20333;-84
2023/07/12 02:55:17;;;;;;;21.50;10.77;;;;;;;;;;6247377;28;20049;-84
2023/07/12 02:58:18;;;;;;;18.30;10.87;;;;;;;;;;6268407;28;20024;-83
2023/07/12 03:01:18;;;;;;;19.50;10.13;;;;;;;;;;6264124;28;20026;-83
2023/07/12 03:04:18;;;;;;;15.80;9.97;;;;;;;;;;6266221;28;20066;-84
2023/07/12 03:07:19;;;;;;;21.60;11.03;;;;;;;;;;6265001;28;20028;-84
2023/07/12 03:10:19;;;;;;;21.07;10.17;;;;;;;;;;6266684;28;20140;-84
2023/07/12 03:13:19;;;;;;;18.83;10.37;;;;;;;;;;6265556;28;20032;-84
2023/07/12 03:16:19;;;;;;;28.93;11.67;;;;;;;;;;6266614;28;20017;-84
2023/07/12 03:19:19;;;;;;;24.02;12.35;;;;;;;;;;6264093;28;20017;-84
2023/07/12 03:22:20;;;;;;;18.40;10.27;;;;;;;;;;6259684;28;20040;-84
2023/07/12 03:25:20;;;;;;;14.68;10.30;;;;;;;;;;6260113;28;20100;-84
2023/07/12 03:28:20;;;;;;;19.20;9.93;;;;;;;;;;6264388;28;20017;-84
2023/07/12 03:31:20;;;;;;;20.10;10.63;;;;;;;;;;6266552;28;20039;-84
2023/07/12 03:34:21;;;;;;;22.30;11.03;;;;;;;;;;6263055;28;20056;-84
2023/07/12 03:37:21;;;;;;;16.03;9.83;;;;;;;;;;6266366;28;20029;-84
2023/07/12 03:40:21;;;;;;;17.57;9.57;;;;;;;;;;6264882;28;20021;-84
2023/07/12 03:43:22;;;;;;;14.83;9.10;;;;;;;;;;6267656;28;20083;-84
2023/07/12 03:46:22;;;;;;;16.60;9.05;;;;;;;;;;6260604;28;20047;-84
2023/07/12 03:49:23;;;;;;;24.10;11.33;;;;;;;;;;6267903;28;20029;-84
2023/07/12 03:52:23;;;;;;;16.17;8.97;;;;;;;;;;6261852;28;20029;-85
2023/07/12 03:55:23;;;;;;;14.73;8.20;;;;;;;;;;6266139;28;20049;-83
2023/07/12 03:58:25;;;;;;;16.63;9.02;;;;;;;;;;6263826;28;20029;-83
2023/07/12 04:01:25;;;;;;;19.73;10.02;;;;;;;;;;6268534;28;20430;-83
2023/07/12 04:04:26;;;;;;;19.33;9.47;;;;;;;;;;6268285;28;20032;-82
2023/07/12 04:07:26;;;;;;;20.63;9.20;;;;;;;;;;6266562;28;20024;-84
2023/07/12 04:10:26;;;;;;;19.57;10.27;;;;;;;;;;6266123;28;20426;-85
2023/07/12 04:13:27;;;;;;;16.57;9.67;;;;;;;;;;6267958;28;20025;-85
2023/07/12 04:16:28;;;;;;;16.93;9.70;;;;;;;;;;6264881;28;20049;-85
2023/07/12 04:19:28;;;;;;;17.13;8.70;;;;;;;;;;6266006;28;20025;-83
2023/07/12 04:22:28;;;;;;;13.57;9.37;;;;;;;;;;6264646;28;20028;-86
2023/07/12 04:25:28;;;;;;;21.97;9.90;;;;;;;;;;6261326;28;20036;-83
2023/07/12 04:28:29;;;;;;;16.73;9.40;;;;;;;;;;6265728;28;20570;-83
2023/07/12 04:31:30;;;;;;;18.13;8.93;;;;;;;;;;6246329;28;20841;-83
2023/07/12 04:34:30;;;;;;;20.77;9.70;;;;;;;;;;6263268;28;20032;-83
2023/07/12 04:37:30;;;;;;;16.93;10.03;;;;;;;;;;6264052;28;20020;-83
2023/07/12 04:40:30;;;;;;;21.13;9.53;;;;;;;;;;6267226;28;20478;-83
2023/07/12 04:43:31;;;;;;;15.63;8.97;;;;;;;;;;6246251;28;20043;-84
2023/07/12 04:46:31;;;;;;;15.67;8.27;;;;;;;;;;6252666;28;20151;-84
2023/07/12 04:49:32;;;;;;;19.23;9.05;;;;;;;;;;6270867;28;20056;-84
2023/07/12 04:52:32;;;;;;;15.90;7.83;;;;;;;;;;6270529;28;20726;-84
2023/07/12 04:55:32;;;;;;;13.60;7.10;;;;;;;;;;6249376;28;20696;-84
2023/07/12 04:58:33;;;;;;;19.30;9.07;;;;;;;;;;6271637;28;20039;-84
2023/07/12 05:01:34;;;;;;;21.00;9.47;;;;;;;;;;6273374;28;20383;-84
2023/07/12 05:04:35;;;;;;;16.67;8.17;;;;;;;;;;6259833;28;20775;-84
2023/07/12 05:07:36;;;;;;;15.63;8.70;;;;;;;;;;6268203;28;20021;-84
2023/07/12 05:10:37;;;;;;;16.27;7.93;;;;;;;;;;6271528;28;20025;-84
2023/07/12 05:13:37;;;;;;;19.27;7.80;;;;;;;;;;6269545;28;20056;-84
2023/07/12 05:16:38;;;;;;;14.80;7.10;;;;;;;;;;6265760;28;20025;-84
2023/07/12 05:19:38;;;;;;;13.93;7.37;;;;;;;;;;6270224;28;20025;-84
2023/07/12 05:22:38;;;;;;;14.60;8.00;;;;;;;;;;6260758;28;20542;-84
2023/07/12 05:25:39;;;;;;;15.57;7.60;;;;;;;;;;6256880;28;20472;-84
2023/07/12 05:28:39;;;;;;;17.50;7.33;;;;;;;;;;6269327;28;20075;-84
2023/07/12 05:31:39;;;;;;;17.33;7.97;;;;;;;;;;6266556;28;20032;-84
2023/07/12 05:34:39;;;;;;;15.67;6.60;;;;;;;;;;6270753;28;20047;-84
2023/07/12 05:37:40;;;;;;;13.07;6.90;;;;;;;;;;6269661;28;20582;-85
2023/07/12 05:40:40;;;;;;;11.23;6.33;;;;;;;;;;6260697;28;20471;-84
2023/07/12 05:43:43;;;;;;;12.60;6.83;;;;;;;;;;6270415;28;20526;-85
2023/07/12 05:46:46;;;;;;;14.32;7.57;;;;;;;;;;6266453;28;20029;-84
2023/07/12 05:49:49;;;;;;;13.45;7.13;;;;;;;;;;6272121;28;20021;-84
2023/07/12 05:52:49;;;;;;;18.15;7.15;;;;;;;;;;6269825;28;20025;-85
2023/07/12 05:55:54;;;;;;;17.13;6.13;;;;;;;;;;6293065;28;20090;-85
2023/07/12 05:58:54;;;;;;;11.57;6.20;;;;;;;;;;6277033;28;20035;-84
2023/07/12 06:01:54;;;;;;;12.90;5.70;;;;;;;;;;6295371;28;20414;-84
2023/07/12 06:04:54;;;;;;;9.80;4.60;;;;;;;;;;6281425;28;20105;-84
2023/07/12 06:07:55;;;;;;;12.20;5.97;;;;;;;;;;6296695;28;20021;-84
2023/07/12 06:10:55;;;;;;;12.73;5.67;;;;;;;;;;6277595;28;20012;-84
2023/07/12 06:13:55;;;;;;;11.80;5.47;;;;;;;;;;6278784;28;20135;-84
2023/07/12 06:16:55;;;;;;;8.97;5.37;;;;;;;;;;6255283;28;20099;-84
2023/07/12 06:19:56;;;;;;;13.80;6.33;;;;;;;;;;6300555;28;20467;-84
2023/07/12 06:22:57;;;;;;;8.47;6.47;;;;;;;;;;6283331;28;20012;-84
2023/07/12 06:25:58;;;;;;;8.73;4.97;;;;;;;;;;6295967;28;20036;-84
2023/07/12 06:28:59;;;;;;;7.53;4.85;;;;;;;;;;6296538;28;20024;-85
2023/07/12 06:31:59;;;;;;;;;;;;;;;;;;6291108;28;20143;-84
2023/07/12 06:34:59;;;;;;;10.73;4.85;;;;;;;;;;6309750;28;19972;-84
2023/07/12 06:37:59;;;;;;;10.13;5.45;;;;;;;;;;6295138;28;20018;-85
2023/07/12 06:41:00;;;;;;;11.55;4.60;;;;;;;;;;6315856;28;20021;-85
2023/07/12 06:44:00;;;;;;;10.23;5.23;;;;;;;;;;6313529;28;20028;-84
2023/07/12 06:47:00;;;;;;;11.13;4.93;;;;;;;;;;6313627;28;20032;-85
2023/07/12 06:50:00;;;;;;;7.60;5.17;;;;;;;;;;6289633;28;20029;-85
2023/07/12 06:53:01;;;;;;;11.00;4.53;;;;;;;;;;6314162;28;20024;-85
2023/07/12 06:56:01;;;;;;;9.07;5.30;;;;;;;;;;6285752;28;20052;-85
2023/07/12 06:59:02;;;;;;;10.07;5.17;;;;;;;;;;6285319;28;20028;-84
2023/07/12 07:02:02;;;;;;;;;;;;;;;;;;6279013;28;20055;-84
2023/07/12 07:05:02;;;;;;;12.23;4.60;;;;;;;;;;6272826;28;19913;-83
2023/07/12 07:08:03;;;;;;;;;;;;;;;;;;6283351;28;20040;-84
2023/07/12 07:11:04;;;;;;;10.00;4.53;;;;;;;;;;6273879;28;20268;-85
2023/07/12 07:14:04;;;;;;;;;;;;;;;;;;6271190;28;20024;-85
2023/07/12 07:17:04;;;;;;;7.43;4.30;;;;;;;;;;6272667;28;19913;-85
2023/07/12 07:20:05;;;;;;;10.03;4.60;;;;;;;;;;6275052;28;20021;-86
2023/07/12 07:23:05;;;;;;;8.57;4.45;;;;;;;;;;6284026;28;20047;-86
2023/07/12 07:26:07;;;;;;;16.33;5.50;;;;;;;;;;6285900;28;20021;-86
2023/07/12 07:29:08;;;;;;;12.68;4.90;;;;;;;;;;6277323;28;20279;-86
2023/07/12 07:32:08;;;;;;;10.13;4.70;;;;;;;;;;6264655;28;20092;-85
2023/07/12 07:35:08;;;;;;;10.13;5.23;;;;;;;;;;6264113;28;20025;-85
2023/07/12 07:38:08;;;;;;;8.40;5.57;;;;;;;;;;6266080;28;20522;-85
2023/07/12 07:41:10;;;;;;;11.60;5.47;;;;;;;;;;6266740;28;20648;-85
2023/07/12 07:44:11;;;;;;;11.15;5.40;;;;;;;;;;6259981;28;20555;-85
2023/07/12 07:47:15;;;;;;;9.33;4.83;;;;;;;;;;6258924;28;20021;-86
2023/07/12 07:50:15;;;;;;;9.35;4.80;;;;;;;;;;6261758;28;20047;-85
2023/07/12 07:53:15;;;;;;;7.40;5.07;;;;;;;;;;6267477;28;20444;-85
2023/07/12 07:56:15;;;;;;;8.27;4.47;;;;;;;;;;6289598;28;20025;-86
2023/07/12 07:59:16;;;;;;;7.63;4.70;;;;;;;;;;6291866;28;20024;-85
2023/07/12 08:02:16;;;;;;;10.55;5.82;;;;;;;;;;6274486;28;20021;-86
2023/07/12 08:05:16;;;;;;;11.27;5.57;;;;;;;;;;6292666;28;20024;-85
2023/07/12 08:08:17;;;;;;;10.60;5.30;;;;;;;;;;6287772;28;20444;-85
2023/07/12 08:11:17;;;;;;;11.20;5.27;;;;;;;;;;6292133;28;20269;-86
2023/07/12 08:14:18;;;;;;;13.18;5.95;;;;;;;;;;6291313;28;20278;-86
2023/07/12 08:17:18;;;;;;;9.90;5.68;;;;;;;;;;6291250;28;20096;-86
2023/07/12 08:20:19;;;;;;;10.25;5.50;;;;;;;;;;6290018;28;20383;-86
2023/07/12 08:23:19;;;;;;;8.05;4.85;;;;;;;;;;6278346;28;20048;-86
2023/07/12 08:26:20;;;;;;;8.65;5.40;;;;;;;;;;6294159;28;20082;-86
2023/07/12 08:29:20;;;;;;;11.07;5.27;;;;;;;;;;6278033;28;20126;-86
2023/07/12 08:32:20;;;;;;;8.15;4.93;;;;;;;;;;6298174;28;20031;-86
2023/07/12 08:35:20;;;;;;;9.37;5.67;;;;;;;;;;6278582;28;20048;-86
2023/07/12 08:38:20;;;;;;;7.57;4.77;;;;;;;;;;6279289;28;20008;-86
2023/07/12 08:41:21;;;;;;;13.60;5.90;;;;;;;;;;6278817;28;20888;-85
2023/07/12 08:44:22;;;;;;;8.43;5.65;;;;;;;;;;6293424;28;20816;-86
2023/07/12 08:47:26;;;;;;;13.07;6.10;;;;;;;;;;6296699;28;20033;-85
2023/07/12 08:50:34;;;;;;;10.73;5.78;;;;;;;;;;6276195;28;20615;-86
2023/07/12 08:53:39;;;;;;;8.90;5.50;;;;;;;;;;6299241;28;20127;-85
2023/07/12 08:56:41;;;;;;;8.65;5.95;;;;;;;;;;6266540;28;20033;-85
2023/07/12 08:59:42;;;;;;;10.82;5.95;;;;;;;;;;6269924;28;20475;-85
2023/07/12 09:02:42;;;;;;;;;;;;;;;;;;6268257;28;20032;-86
2023/07/12 09:05:42;;;;;;;10.10;6.45;;;;;;;;;;6270769;28;19959;-85
2023/07/12 09:08:44;;;;;;;11.37;5.93;;;;;;;;;;6268717;28;20025;-86
2023/07/12 09:11:44;;;;;;;13.23;7.07;;;;;;;;;;6264867;28;20089;-86
2023/07/12 09:14:44;;;;;;;11.63;6.18;;;;;;;;;;6266840;28;20017;-85
2023/07/12 09:17:45;;;;;;;9.57;6.60;;;;;;;;;;6263432;28;20116;-86
2023/07/12 09:20:45;;;;;;;;;;;;;;;;;;6258516;28;20021;-84
2023/07/12 09:23:45;;;;;;;19.27;6.28;;;;;;;;;;6269088;28;19939;-84
2023/07/12 09:26:45;;;;;;;;;;;;;;;;;;6269252;28;20031;-84
2023/07/12 09:29:46;;;;;;;10.18;6.78;;;;;;;;;;6260710;28;19912;-84
2023/07/12 09:32:49;;;;;;;7.97;5.70;;;;;;;;;;6246437;28;20029;-84
2023/07/12 09:35:50;;;;;;;11.32;6.65;;;;;;;;;;6261281;28;20063;-84
2023/07/12 09:38:50;;;;;;;11.27;6.68;;;;;;;;;;6267033;28;20749;-84
2023/07/12 09:41:54;;;;;;;12.40;7.23;;;;;;;;;;6268825;28;20466;-83
2023/07/12 09:44:54;;;;;;;17.27;7.53;;;;;;;;;;6267497;28;20013;-86
2023/07/12 09:48:09;;;;;;;11.57;7.27;;;;;;;;;;6262768;28;20549;-86
2023/07/12 09:51:29;;;;;;;14.65;8.10;;;;;;;;;;6269400;28;20029;-85
2023/07/12 09:54:48;;;;;;;14.27;8.77;;;;;;;;;;6267193;28;20410;-85
2023/07/12 09:57:55;;;;;;;15.35;9.15;;;;;;;;;;6290108;28;20028;-85
2023/07/12 10:00:59;;;;;;;12.63;7.57;;;;;;;;;;6294404;28;20012;-85
2023/07/12 10:04:02;;;;;;;10.80;7.28;;;;;;;;;;6273303;28;20027;-86
2023/07/12 10:07:23;;;;;;;14.23;8.07;;;;;;;;;;6275694;28;20020;-86
2023/07/12 10:10:32;;;;;;;14.73;8.77;;;;;;;;;;6264842;28;20071;-85
2023/07/12 10:13:41;;;;;;;16.38;11.65;;;;;;;;;;6271829;28;20036;-85
2023/07/12 10:17:02;;;;;;;15.98;8.18;;;;;;;;;;6289296;28;20017;-85
2023/07/12 10:20:06;;;;;;;15.18;7.88;;;;;;;;;;6291951;28;20033;-85
2023/07/12 10:23:10;;;;;;;11.88;6.25;;;;;;;;;;6274353;28;20024;-85
2023/07/12 10:26:12;;;;;;;8.77;6.63;;;;;;;;;;6273991;28;20024;-85
2023/07/12 10:29:30;;;;;;;15.75;6.72;;;;;;;;;;6291306;28;20028;-84
2023/07/12 10:32:36;;;;;;;9.13;5.70;;;;;;;;;;6290051;28;20111;-84
2023/07/12 10:35:46;;;;;;;11.13;6.72;;;;;;;;;;6285494;28;20090;-85
2023/07/12 10:38:47;;;;;;;11.32;6.65;;;;;;;;;;6291946;28;20028;-84
2023/07/12 10:41:47;;;;;;;;;;;;;;;;;;6290610;28;20391;-85
2023/07/12 10:44:52;;;;;;;12.32;4.43;;;;;;;;;;6286247;28;19957;-85
2023/07/12 10:47:53;;;;;;;11.45;5.30;;;;;;;;;;6277560;28;20490;-84
2023/07/12 10:50:56;;;;;;;6.88;4.72;;;;;;;;;;6284793;28;20063;-84
2023/07/12 10:53:56;;;;;;;7.32;4.78;;;;;;;;;;6292493;28;20147;-85
2023/07/12 10:56:56;;;;;;;;;;;;;;;;;;6275152;28;20017;-85
2023/07/12 11:00:05;;;;;;;10.73;5.78;;;;;;;;;;6293070;28;19909;-84
2023/07/12 11:03:11;;;;;;;9.00;5.72;;;;;;;;;;6289872;28;20020;-85
2023/07/12 11:06:22;;;;;;;9.82;5.30;;;;;;;;;;6286215;28;20052;-85
2023/07/12 11:09:23;;;;;;;7.30;4.93;;;;;;;;;;6291756;28;20024;-84
2023/07/12 11:12:23;;;;;;;;;;;;;;;;;;6284726;28;20516;-85
2023/07/12 11:15:27;;;;;;;8.27;5.13;;;;;;;;;;6290917;28;19904;-84
2023/07/12 11:18:35;;;;;;;12.05;5.75;;;;;;;;;;6267217;28;20021;-85
2023/07/12 11:21:50;;;;;;;8.32;5.97;;;;;;;;;;6293164;28;20020;-84
2023/07/12 11:24:53;;;;;;;6.78;4.95;;;;;;;;;;6288698;28;20066;-85
2023/07/12 11:27:55;;;;;;;7.90;5.47;;;;;;;;;;6289065;28;20032;-87
2023/07/12 11:31:16;;;;;;;9.07;5.18;;;;;;;;;;6290547;28;20023;-86
2023/07/12 11:34:19;;;;;;;11.40;6.13;;;;;;;;;;6289737;28;20466;-86
2023/07/12 11:37:27;;;;;;;11.93;6.45;;;;;;;;;;6290739;28;20096;-86
2023/07/12 11:40:30;;;;;;;8.50;5.07;;;;;;;;;;6291399;28;20406;-87
2023/07/12 11:43:34;;;;;;;9.35;5.38;;;;;;;;;;6269339;28;20035;-86
2023/07/12 11:46:38;;;;;;;7.20;3.88;;;;;;;;;;6269011;28;20028;-87
2023/07/12 11:49:40;;;;;;;10.07;5.05;;;;;;;;;;6274134;28;20060;-86
2023/07/12 11:52:40;;;;;;;6.80;4.35;;;;;;;;;;6291083;28;20470;-87
2023/07/12 11:55:40;;;;;;;10.40;4.67;;;;;;;;;;6267588;28;20049;-87
2023/07/12 11:58:41;;;;;;;8.18;4.80;;;;;;;;;;6265167;28;20021;-86
2023/07/12 12:01:42;;;;;;;11.70;5.22;;;;;;;;;;6270848;28;20025;-86
2023/07/12 12:04:43;;;;;;;;;;;;;;;;;;6269761;28;20493;-86
2023/07/12 12:07:43;;;;;;;6.93;4.60;;;;;;;;;;6271032;28;19963;-87
2023/07/12 12:10:45;;;;;;;11.00;5.03;;;;;;;;;;6269483;28;20075;-87
2023/07/12 12:13:48;;;;;;;10.20;4.93;;;;;;;;;;6269276;28;20017;-86
2023/07/12 12:16:52;;;;;;;9.10;4.28;;;;;;;;;;6270215;28;20112;-86
2023/07/12 12:20:11;;;;;;;11.45;4.32;;;;;;;;;;6275373;28;20466;-87
2023/07/12 12:23:13;;;;;;;8.00;5.28;;;;;;;;;;6272411;28;20028;-89
2023/07/12 12:26:22;;;;;;;8.43;5.15;;;;;;;;;;6272240;28;20031;-86
2023/07/12 12:29:23;;;;;;;10.95;5.65;;;;;;;;;;6272383;28;20029;-85
2023/07/12 12:32:24;;;;;;;;;;;;;;;;;;6268961;28;20032;-87
2023/07/12 12:35:25;;;;;;;12.23;6.35;;;;;;;;;;6266336;28;19913;-87
2023/07/12 12:38:25;;;;;;;;;;;;;;;;;;6269399;28;20114;-87
2023/07/12 12:41:40;;;;;;;7.23;4.00;;;;;;;;;;6272503;28;19909;-87
2023/07/12 12:44:40;;;;;;;9.93;6.00;;;;;;;;;;6259521;28;20028;-87
2023/07/12 12:47:45;;;;;;;8.63;6.00;;;;;;;;;;6268347;28;20694;-87
2023/07/12 12:50:48;;;;;;;12.75;6.13;;;;;;;;;;6273344;28;20025;-87
2023/07/12 12:53:48;;;;;;;8.95;5.45;;;;;;;;;;6273944;28;20044;-87
2023/07/12 12:56:49;;;;;;;7.63;5.20;;;;;;;;;;6269000;28;20511;-86
2023/07/12 12:59:49;;;;;;;9.80;5.82;;;;;;;;;;6268857;28;20032;-88
2023/07/12 13:02:53;;;;;;;10.37;5.93;;;;;;;;;;6267840;28;20380;-87
2023/07/12 13:05:53;;;;;;;9.45;5.65;;;;;;;;;;6264197;28;20039;-87
2023/07/12 13:08:53;;;;;;;15.67;9.60;;;;;;;;;;6278390;28;20234;-87
2023/07/12 13:11:54;;;;;;;;;;;;;;;;;;6269570;28;20029;-87
2023/07/12 13:14:54;;;;;;;11.43;5.47;;;;;;;;;;6269957;28;19912;-84
2023/07/12 13:17:54;;;;;;;;;;;;;;;;;;6270029;28;20102;-85
2023/07/12 13:20:55;;;;;;;11.03;4.80;;;;;;;;;;6266485;28;19919;-85
2023/07/12 13:23:56;;;;;;;7.40;4.63;;;;;;;;;;6269129;28;20498;-85
2023/07/12 13:26:56;;;;;;;;;;;;;;;;;;6268489;28;20016;-85
2023/07/12 13:29:56;;;;;;;8.02;5.30;;;;;;;;;;6268720;28;19915;-85
2023/07/12 13:32:56;;;;;;;;;;;;;;;;;;6267218;28;20343;-85
2023/07/12 13:35:56;;;;;;;10.10;4.60;;;;;;;;;;6269564;28;19905;-86
2023/07/12 13:38:56;;;;;;;;;;;;;;;;;;6265512;28;20022;-85
2023/07/12 13:41:57;;;;;;;9.75;4.93;;;;;;;;;;6268987;28;19966;-85
2023/07/12 13:44:57;;;;;;;;;;;;;;;;;;6266231;28;20021;-85
2023/07/12 13:47:58;;;;;;;8.00;4.53;;;;;;;;;;6262393;28;19962;-85
2023/07/12 13:50:58;;;;;;;;;;;;;;;;;;6267989;28;20017;-85
2023/07/12 13:53:58;;;;;;;7.87;4.13;;;;;;;;;;6272285;28;19937;-85
2023/07/12 13:56:58;;;;;;;;;;;;;;;;;;6285025;28;20013;-86
2023/07/12 13:59:59;;;;;;;6.13;3.88;;;;;;;;;;6289751;28;19912;-85
2023/07/12 14:02:59;;;;;;;;;;;;;;;;;;6291194;28;20082;-85
2023/07/12 14:06:00;;;;;;;5.45;3.58;;;;;;;;;;6292445;28;19908;-85
2023/07/12 14:09:00;;;;;;;6.07;3.28;;;;;;;;;;6274306;28;20048;-85
2023/07/12 14:12:01;;;;;;;;;;;;;;;;;;6272530;28;20032;-85
2023/07/12 14:15:01;;;;;;;8.38;3.95;;;;;;;;;;6290452;28;19912;-85
2023/07/12 14:18:03;;;;;;;;;;;;;;;;;;6274268;28;20028;-85
2023/07/12 14:21:05;;;;;;;;;;;;;;;;;;6293499;28;19935;-85
2023/07/12 14:24:05;;;;;;;6.05;3.83;;;;;;;;;;6273642;28;20004;-85
2023/07/12 14:27:13;;;;;;;5.07;3.63;;;;;;;;;;6274515;28;20017;-84
2023/07/12 14:30:14;;;;;;;7.40;3.60;;;;;;;;;;6293118;28;20270;-85
2023/07/12 14:33:35;;;;;;;6.60;4.32;;;;;;;;;;6291072;28;20035;-85
2023/07/12 14:36:35;;;;;;;5.85;3.35;;;;;;;;;;6273005;28;20032;-85
2023/07/12 14:39:35;;;;;;;8.23;3.43;;;;;;;;;;6290939;28;20020;-85
2023/07/12 14:42:36;;;;;;;4.43;3.20;;;;;;;;;;6289170;28;20478;-84
2023/07/12 14:45:36;;;;;;;5.43;3.10;;;;;;;;;;6275260;28;20043;-85
2023/07/12 14:48:36;;;;;;;7.33;3.47;;;;;;;;;;6267302;28;20039;-84
2023/07/12 14:51:37;;;;;;;5.93;3.30;;;;;;;;;;6274024;28;20031;-85
2023/07/12 14:54:37;;;;;;;7.07;3.60;;;;;;;;;;6273683;28;20123;-85
2023/07/12 14:57:37;;;;;;;3.67;3.03;;;;;;;;;;6292032;28;20030;-85
2023/07/12 15:00:38;;;;;;;4.47;3.33;;;;;;;;;;6271982;28;20085;-85
2023/07/12 15:03:39;;;;;;;4.60;3.30;;;;;;;;;;6273305;28;20029;-85
2023/07/12 15:06:39;;;;;;;7.50;4.30;;;;;;;;;;6271129;28;20039;-85
2023/07/12 15:09:39;;;;;;;6.05;2.70;;;;;;;;;;6273318;28;20027;-85
2023/07/12 15:12:41;;;;;;;5.20;2.97;;;;;;;;;;6286773;28;20529;-85
2023/07/12 15:15:41;;;;;;;3.90;2.80;;;;;;;;;;6272799;28;20031;-85
2023/07/12 15:18:42;;;;;;;8.50;3.30;;;;;;;;;;6284958;28;20016;-84
2023/07/12 15:21:42;;;;;;;5.53;3.05;;;;;;;;;;6291995;28;20025;-86
2023/07/12 15:24:42;;;;;;;4.70;2.60;;;;;;;;;;6287911;28;20036;-86
2023/07/12 15:27:43;;;;;;;4.90;3.23;;;;;;;;;;6290470;28;20040;-86
2023/07/12 15:30:44;;;;;;;4.90;3.33;;;;;;;;;;6290928;28;20331;-86
2023/07/12 15:33:45;;;;;;;3.50;3.03;;;;;;;;;;6273803;28;20079;-86
2023/07/12 15:36:46;;;;;;;3.95;3.38;;;;;;;;;;6290658;28;20016;-86
2023/07/12 15:39:47;;;;;;;8.30;3.30;;;;;;;;;;6295291;28;20012;-86
2023/07/12 15:42:51;;;;;;;6.47;2.85;;;;;;;;;;6291354;28;20053;-86
2023/07/12 15:45:51;;;;;;;5.60;2.50;;;;;;;;;;6285636;28;20032;-86
2023/07/12 15:48:52;;;;;;;4.38;2.75;;;;;;;;;;6292038;28;20533;-86
2023/07/12 15:51:53;;;;;;;5.18;2.40;;;;;;;;;;6288865;28;20028;-86
2023/07/12 15:54:54;;;;;;;4.32;3.03;;;;;;;;;;6293171;28;20378;-87
2023/07/12 15:57:54;;;;;;;9.20;3.33;;;;;;;;;;6293482;28;20055;-86
2023/07/12 16:00:55;;;;;;;6.30;2.90;;;;;;;;;;6275198;28;20685;-84
2023/07/12 16:03:56;;;;;;;4.05;2.55;;;;;;;;;;6290241;28;20638;-87
2023/07/12 16:06:56;;;;;;;3.22;2.13;;;;;;;;;;6274882;28;20021;-86
2023/07/12 16:09:56;;;;;;;3.67;2.53;;;;;;;;;;6274631;28;20070;-87
2023/07/12 16:12:56;;;;;;;3.57;2.60;;;;;;;;;;6288399;28;20121;-87
2023/07/12 16:15:57;;;;;;;3.05;2.67;;;;;;;;;;6281726;28;20543;-86
2023/07/12 16:18:57;;;;;;;3.77;2.77;;;;;;;;;;6285685;28;20441;-87
2023/07/12 16:21:58;;;;;;;21.42;5.00;;;;;;;;;;6280766;28;20032;-84
2023/07/12 16:24:59;;;;;;;6.47;2.50;;;;;;;;;;6276462;28;20044;-84
2023/07/12 16:27:59;;;;;;;5.53;3.13;;;;;;;;;;6262967;28;20398;-84
2023/07/12 16:31:02;;;;;;;5.20;2.30;;;;;;;;;;6281960;28;20097;-87
2023/07/12 16:34:05;;;;;;;3.25;2.50;;;;;;;;;;6287264;28;20023;-87
2023/07/12 16:37:14;;;;;;;41.78;8.73;;;;;;;;;;6264520;28;20024;-87
2023/07/12 16:40:14;;;;;;;5.15;2.67;;;;;;;;;;6263613;28;20643;-86
2023/07/12 16:43:15;;;;;;;4.53;2.03;;;;;;;;;;6288172;28;20021;-87
2023/07/12 16:46:15;;;;;;;33.85;7.57;;;;;;;;;;6276987;28;20028;-86
2023/07/12 16:49:16;;;;;;;7.13;2.10;;;;;;;;;;6280662;28;20029;-86
2023/07/12 16:52:21;;;;;;;7.18;2.15;;;;;;;;;;6284719;28;20017;-86
2023/07/12 16:55:21;;;;;;;4.43;2.35;;;;;;;;;;6272085;28;20053;-87
2023/07/12 16:58:22;;;;;;;2.47;2.20;;;;;;;;;;6271938;28;20046;-86
2023/07/12 17:01:28;;;;;;;5.57;2.42;;;;;;;;;;6288847;28;20024;-86
2023/07/12 17:04:28;;;;;;;9.02;2.67;;;;;;;;;;6289849;28;20074;-86
2023/07/12 17:07:29;;;;;;;;;;;;;;;;;;6277990;28;20435;-86
2023/07/12 17:10:30;;;;;;;4.87;2.30;;;;;;;;;;6292341;28;19994;-86
2023/07/12 17:13:30;;;;;;;5.00;3.00;;;;;;;;;;6291223;28;20028;-86
2023/07/12 17:16:31;;;;;;;5.22;2.95;;;;;;;;;;6278978;28;20746;-86
2023/07/12 17:19:31;;;;;;;7.33;3.03;;;;;;;;;;6272268;28;20478;-86
2023/07/12 17:22:32;;;;;;;6.45;3.10;;;;;;;;;;6276156;28;20267;-86
2023/07/12 17:25:35;;;;;;;9.40;5.20;;;;;;;;;;6277844;28;20498;-86
2023/07/12 17:28:35;;;;;;;10.98;4.90;;;;;;;;;;6277843;28;20275;-86
2023/07/12 17:31:36;;;;;;;;;;;;;;;;;;6294635;28;20032;-86
2023/07/12 17:34:36;;;;;;;7.47;4.50;;;;;;;;;;6297239;28;19920;-86
2023/07/12 17:37:37;;;;;;;;;;;;;;;;;;6297827;28;20020;-86
2023/07/12 17:40:39;;;;;;;11.95;7.05;;;;;;;;;;6287377;28;19922;-83
2023/07/12 17:43:39;;;;;;;14.00;7.07;;;;;;;;;;6296211;28;20341;-84
2023/07/12 17:46:39;;;;;;;;;;;;;;;;;;6276767;28;20475;-84
2023/07/12 17:49:40;;;;;;;15.60;6.60;;;;;;;;;;6292345;28;20496;-84
2023/07/12 17:52:40;;;;;;;;;;;;;;;;;;6271766;28;20021;-83
2023/07/12 17:55:41;;;;;;;41.28;13.45;;;;;;;;;;6273897;28;19920;-83
2023/07/12 17:58:41;;;;;;;267.05;47.35;;;;;;;;;;6276508;28;20113;-84
2023/07/12 18:01:42;;;;;;;49.47;14.85;;;;;;;;;;6287081;28;20050;-84
2023/07/12 18:04:42;;;;;;;68.32;15.27;;;;;;;;;;6270113;28;20541;-84
2023/07/12 18:07:43;;;;;;;52.70;12.77;;;;;;;;;;6289330;28;20038;-83
2023/07/12 18:10:51;;;;;;;25.93;7.87;;;;;;;;;;6277590;28;20036;-83